Time,TemperatureF,DewpointF,PressureIn,WindDirection,WindDirectionDegrees,WindSpeedMPH,WindSpeedGustMPH,Humidity,HourlyPrecipIn,Conditions,Clouds,dailyrainin,SoftwareType,DateUTC
2013-06-24 00:01:00,65.8,61.8,29.90,NW,315,0.0,0.0,87,0.00,,,0.00,vanprod-2.3,2013-06-24 05:01:00,
2013-06-24 00:06:00,65.8,61.8,29.90,NW,315,0.0,0.0,87,0.00,,,0.00,vanprod-2.3,2013-06-24 05:06:00,
2013-06-24 00:11:00,65.8,61.8,29.90,NW,315,0.0,0.0,87,0.00,,,0.00,vanprod-2.3,2013-06-24 05:11:00,
2013-06-24 00:16:00,65.8,61.8,29.90,NW,315,0.0,0.0,87,0.00,,,0.00,vanprod-2.3,2013-06-24 05:16:00,
2013-06-24 00:21:00,65.8,61.8,29.90,NW,315,0.0,2.0,87,0.00,,,0.00,vanprod-2.3,2013-06-24 05:21:00,
2013-06-24 00:26:00,65.8,61.8,29.90,NW,315,0.0,0.0,87,0.00,,,0.00,vanprod-2.3,2013-06-24 05:26:00,
2013-06-24 00:31:00,65.6,62.0,29.90,NW,315,0.0,0.0,88,0.00,,,0.00,vanprod-2.3,2013-06-24 05:31:00,
2013-06-24 00:36:00,65.8,61.8,29.91,NW,315,1.0,3.0,87,0.00,,,0.00,vanprod-2.3,2013-06-24 05:36:00,
2013-06-24 00:41:00,65.9,61.6,29.91,NW,315,0.0,0.0,86,0.00,,,0.00,vanprod-2.3,2013-06-24 05:41:00,
2013-06-24 00:46:00,66.3,62.0,29.91,NW,315,0.0,0.0,86,0.00,,,0.00,vanprod-2.3,2013-06-24 05:46:00,
2013-06-24 00:51:00,66.3,61.7,29.91,NW,315,0.0,0.0,85,0.00,,,0.00,vanprod-2.3,2013-06-24 05:51:00,
2013-06-24 00:56:00,66.1,61.5,29.91,NW,315,0.0,0.0,85,0.00,,,0.00,vanprod-2.3,2013-06-24 05:56:00,
2013-06-24 01:01:00,66.1,61.8,29.91,NW,315,0.0,0.0,86,0.00,,,0.00,vanprod-2.3,2013-06-24 06:01:00,
2013-06-24 01:06:00,65.9,61.6,29.92,NW,315,0.0,0.0,86,0.00,,,0.00,vanprod-2.3,2013-06-24 06:06:00,
2013-06-24 01:11:00,65.8,61.5,29.92,NW,315,0.0,0.0,86,0.00,,,0.00,vanprod-2.3,2013-06-24 06:11:00,
2013-06-24 01:16:00,65.6,61.6,29.92,NW,315,0.0,0.0,87,0.00,,,0.00,vanprod-2.3,2013-06-24 06:16:00,
2013-06-24 01:22:00,65.5,61.5,29.92,NW,315,0.0,0.0,87,0.00,,,0.00,vanprod-2.3,2013-06-24 06:22:00,
2013-06-24 01:27:00,65.1,61.1,29.91,NW,315,0.0,0.0,87,0.00,,,0.00,vanprod-2.3,2013-06-24 06:27:00,
2013-06-24 01:32:00,65.1,61.1,29.91,NW,315,0.0,0.0,87,0.00,,,0.00,vanprod-2.3,2013-06-24 06:32:00,
2013-06-24 01:37:00,65.0,61.0,29.91,NW,315,0.0,0.0,87,0.00,,,0.00,vanprod-2.3,2013-06-24 06:37:00,
2013-06-24 01:42:00,65.0,61.0,29.91,NW,315,0.0,1.0,87,0.00,,,0.00,vanprod-2.3,2013-06-24 06:42:00,
2013-06-24 01:47:00,65.0,61.0,29.90,NW,315,0.0,0.0,87,0.00,,,0.00,vanprod-2.3,2013-06-24 06:47:00,
2013-06-24 01:52:00,65.1,60.8,29.90,NW,315,0.0,0.0,86,0.00,,,0.00,vanprod-2.3,2013-06-24 06:52:00,
2013-06-24 01:57:00,65.5,60.9,29.90,NW,315,1.0,0.0,85,0.00,,,0.00,vanprod-2.3,2013-06-24 06:57:00,
2013-06-24 02:02:00,65.6,60.6,29.90,NW,315,1.0,3.0,84,0.00,,,0.00,vanprod-2.3,2013-06-24 07:02:00,
2013-06-24 02:07:00,65.8,60.8,29.90,NW,315,0.0,0.0,84,0.00,,,0.00,vanprod-2.3,2013-06-24 07:07:00,
2013-06-24 02:13:00,65.8,60.8,29.91,NW,315,0.0,0.0,84,0.00,,,0.00,vanprod-2.3,2013-06-24 07:13:00,
2013-06-24 02:18:00,65.6,60.6,29.91,NW,315,0.0,0.0,84,0.00,,,0.00,vanprod-2.3,2013-06-24 07:18:00,
2013-06-24 02:23:00,65.5,60.9,29.91,NW,315,0.0,0.0,85,0.00,,,0.00,vanprod-2.3,2013-06-24 07:23:00,
2013-06-24 02:28:00,65.3,60.7,29.91,NW,315,0.0,0.0,85,0.00,,,0.00,vanprod-2.3,2013-06-24 07:28:00,
2013-06-24 02:33:00,65.1,60.5,29.91,NW,315,0.0,0.0,85,0.00,,,0.00,vanprod-2.3,2013-06-24 07:33:00,
2013-06-24 02:39:00,65.0,60.4,29.91,NW,315,0.0,0.0,85,0.00,,,0.00,vanprod-2.3,2013-06-24 07:39:00,
2013-06-24 02:44:00,65.0,60.4,29.90,NW,315,0.0,0.0,85,0.00,,,0.00,vanprod-2.3,2013-06-24 07:44:00,
2013-06-24 02:49:00,64.7,60.4,29.90,NW,315,0.0,0.0,86,0.00,,,0.00,vanprod-2.3,2013-06-24 07:49:00,
2013-06-24 02:54:00,64.5,60.6,29.90,NW,315,0.0,0.0,87,0.00,,,0.00,vanprod-2.3,2013-06-24 07:54:00,
2013-06-24 02:59:00,64.3,60.4,29.90,NW,315,0.0,0.0,87,0.00,,,0.00,vanprod-2.3,2013-06-24 07:59:00,
2013-06-24 03:04:00,64.0,60.1,29.90,NW,315,0.0,0.0,87,0.00,,,0.00,vanprod-2.3,2013-06-24 08:04:00,
2013-06-24 03:09:00,63.7,59.8,29.90,NW,315,0.0,0.0,87,0.00,,,0.00,vanprod-2.3,2013-06-24 08:09:00,
2013-06-24 03:14:00,63.4,59.8,29.90,NW,315,0.0,0.0,88,0.00,,,0.00,vanprod-2.3,2013-06-24 08:14:00,
2013-06-24 03:19:00,63.2,59.6,29.89,NW,315,0.0,0.0,88,0.00,,,0.00,vanprod-2.3,2013-06-24 08:19:00,
2013-06-24 03:24:00,63.0,59.4,29.89,NW,315,0.0,0.0,88,0.00,,,0.00,vanprod-2.3,2013-06-24 08:24:00,
2013-06-24 03:29:00,62.9,59.3,29.89,NW,315,0.0,0.0,88,0.00,,,0.00,vanprod-2.3,2013-06-24 08:29:00,
2013-06-24 03:34:00,62.6,59.6,29.89,NW,315,0.0,0.0,90,0.00,,,0.00,vanprod-2.3,2013-06-24 08:34:00,
2013-06-24 03:39:00,62.4,59.4,29.88,NW,315,0.0,0.0,90,0.00,,,0.00,vanprod-2.3,2013-06-24 08:39:00,
2013-06-24 03:44:00,62.4,59.4,29.89,NW,315,0.0,0.0,90,0.00,,,0.00,vanprod-2.3,2013-06-24 08:44:00,
2013-06-24 03:49:00,62.2,59.5,29.88,NW,315,0.0,0.0,91,0.00,,,0.00,vanprod-2.3,2013-06-24 08:49:00,
2013-06-24 03:55:00,62.1,59.4,29.88,NW,315,0.0,0.0,91,0.00,,,0.00,vanprod-2.3,2013-06-24 08:55:00,
2013-06-24 04:00:00,61.9,59.2,29.89,NW,315,0.0,0.0,91,0.00,,,0.00,vanprod-2.3,2013-06-24 09:00:00,
2013-06-24 04:05:00,61.9,59.2,29.89,NW,315,0.0,0.0,91,0.00,,,0.00,vanprod-2.3,2013-06-24 09:05:00,
2013-06-24 04:10:00,61.9,59.2,29.89,NW,315,0.0,0.0,91,0.00,,,0.00,vanprod-2.3,2013-06-24 09:10:00,
2013-06-24 04:15:00,61.8,59.5,29.89,NW,315,0.0,0.0,92,0.00,,,0.00,vanprod-2.3,2013-06-24 09:15:00,
2013-06-24 04:20:00,61.8,59.5,29.89,NW,315,0.0,0.0,92,0.00,,,0.00,vanprod-2.3,2013-06-24 09:20:00,
2013-06-24 04:25:00,61.6,59.3,29.89,NW,315,0.0,0.0,92,0.00,,,0.00,vanprod-2.3,2013-06-24 09:25:00,
2013-06-24 04:30:00,61.6,59.3,29.89,NW,315,0.0,0.0,92,0.00,,,0.00,vanprod-2.3,2013-06-24 09:30:00,
2013-06-24 04:35:00,61.5,59.2,29.89,NW,315,0.0,0.0,92,0.00,,,0.00,vanprod-2.3,2013-06-24 09:35:00,
2013-06-24 04:40:00,61.5,59.5,29.89,NW,315,0.0,0.0,93,0.00,,,0.00,vanprod-2.3,2013-06-24 09:40:00,
2013-06-24 04:46:00,61.5,59.5,29.89,NW,315,0.0,0.0,93,0.00,,,0.00,vanprod-2.3,2013-06-24 09:46:00,
2013-06-24 04:51:00,61.3,59.3,29.90,NW,315,0.0,0.0,93,0.00,,,0.00,vanprod-2.3,2013-06-24 09:51:00,
2013-06-24 04:56:00,61.3,59.3,29.90,NW,315,0.0,0.0,93,0.00,,,0.00,vanprod-2.3,2013-06-24 09:56:00,
2013-06-24 05:01:00,61.1,59.1,29.90,NW,315,0.0,0.0,93,0.00,,,0.00,vanprod-2.3,2013-06-24 10:01:00,
2013-06-24 05:07:00,61.1,59.1,29.90,NW,315,0.0,0.0,93,0.00,,,0.00,vanprod-2.3,2013-06-24 10:07:00,
2013-06-24 05:12:00,61.0,59.0,29.90,NW,315,0.0,0.0,93,0.00,,,0.00,vanprod-2.3,2013-06-24 10:12:00,
2013-06-24 05:17:00,61.0,59.3,29.89,NW,315,0.0,0.0,94,0.00,,,0.00,vanprod-2.3,2013-06-24 10:17:00,
2013-06-24 05:22:00,60.8,59.1,29.89,NW,315,0.0,0.0,94,0.00,,,0.00,vanprod-2.3,2013-06-24 10:22:00,
2013-06-24 05:27:00,60.8,59.1,29.89,NW,315,0.0,0.0,94,0.00,,,0.00,vanprod-2.3,2013-06-24 10:27:00,
2013-06-24 05:32:00,60.7,59.0,29.89,NW,315,0.0,0.0,94,0.00,,,0.00,vanprod-2.3,2013-06-24 10:32:00,
2013-06-24 05:37:00,60.7,59.0,29.89,NW,315,0.0,0.0,94,0.00,,,0.00,vanprod-2.3,2013-06-24 10:37:00,
2013-06-24 05:42:00,60.7,59.0,29.90,NW,315,0.0,0.0,94,0.00,,,0.00,vanprod-2.3,2013-06-24 10:42:00,
2013-06-24 05:47:00,60.5,58.8,29.90,NW,315,0.0,0.0,94,0.00,,,0.00,vanprod-2.3,2013-06-24 10:47:00,
2013-06-24 05:52:00,60.4,58.7,29.90,NW,315,0.0,0.0,94,0.00,,,0.00,vanprod-2.3,2013-06-24 10:52:00,
2013-06-24 05:57:00,60.4,58.7,29.90,NW,315,0.0,0.0,94,0.00,,,0.00,vanprod-2.3,2013-06-24 10:57:00,
2013-06-24 06:03:00,60.2,58.5,29.90,NW,315,0.0,0.0,94,0.00,,,0.00,vanprod-2.3,2013-06-24 11:03:00,
2013-06-24 06:08:00,60.2,58.5,29.90,NW,315,0.0,0.0,94,0.00,,,0.00,vanprod-2.3,2013-06-24 11:08:00,
2013-06-24 06:13:00,60.2,58.8,29.90,NW,315,0.0,0.0,95,0.00,,,0.00,vanprod-2.3,2013-06-24 11:13:00,
2013-06-24 06:18:00,60.2,58.8,29.91,NW,315,0.0,0.0,95,0.00,,,0.00,vanprod-2.3,2013-06-24 11:18:00,
2013-06-24 06:23:00,60.4,59.0,29.91,NW,315,0.0,0.0,95,0.00,,,0.00,vanprod-2.3,2013-06-24 11:23:00,
2013-06-24 06:28:00,60.7,59.3,29.91,NW,315,0.0,0.0,95,0.00,,,0.00,vanprod-2.3,2013-06-24 11:28:00,
2013-06-24 06:33:00,60.7,59.3,29.91,NW,315,0.0,0.0,95,0.00,,,0.00,vanprod-2.3,2013-06-24 11:33:00,
2013-06-24 06:38:00,61.1,60.0,29.91,NW,315,0.0,0.0,96,0.00,,,0.00,vanprod-2.3,2013-06-24 11:38:00,
2013-06-24 06:43:00,61.1,60.0,29.91,NW,315,0.0,0.0,96,0.00,,,0.00,vanprod-2.3,2013-06-24 11:43:00,
2013-06-24 06:48:00,61.3,60.2,29.90,NW,315,0.0,0.0,96,0.00,,,0.00,vanprod-2.3,2013-06-24 11:48:00,
2013-06-24 06:53:00,61.6,60.5,29.90,NW,315,0.0,0.0,96,0.00,,,0.00,vanprod-2.3,2013-06-24 11:53:00,
2013-06-24 06:58:00,61.8,60.7,29.90,NW,315,0.0,0.0,96,0.00,,,0.00,vanprod-2.3,2013-06-24 11:58:00,
2013-06-24 07:03:00,61.9,60.8,29.89,NW,315,0.0,0.0,96,0.00,,,0.00,vanprod-2.3,2013-06-24 12:03:00,
2013-06-24 07:08:00,62.2,61.0,29.89,NW,315,0.0,0.0,96,0.00,,,0.00,vanprod-2.3,2013-06-24 12:08:00,
2013-06-24 07:14:00,62.6,61.4,29.89,NW,315,0.0,0.0,96,0.00,,,0.00,vanprod-2.3,2013-06-24 12:14:00,
2013-06-24 07:19:00,63.0,61.8,29.88,NW,315,0.0,0.0,96,0.00,,,0.00,vanprod-2.3,2013-06-24 12:19:00,
2013-06-24 07:24:00,63.7,61.9,29.87,NW,315,0.0,0.0,94,0.00,,,0.00,vanprod-2.3,2013-06-24 12:24:00,
2013-06-24 07:29:00,64.2,62.1,29.87,NW,315,0.0,0.0,93,0.00,,,0.00,vanprod-2.3,2013-06-24 12:29:00,
2013-06-24 07:34:00,64.5,62.1,29.87,NW,315,0.0,0.0,92,0.00,,,0.00,vanprod-2.3,2013-06-24 12:34:00,
2013-06-24 07:40:00,64.8,62.1,29.87,NW,315,0.0,0.0,91,0.00,,,0.00,vanprod-2.3,2013-06-24 12:40:00,
2013-06-24 07:45:00,65.0,62.0,29.87,NW,315,0.0,0.0,90,0.00,,,0.00,vanprod-2.3,2013-06-24 12:45:00,
2013-06-24 07:50:00,65.5,62.2,29.88,NW,315,0.0,2.0,89,0.00,,,0.00,vanprod-2.3,2013-06-24 12:50:00,
2013-06-24 07:55:00,66.1,62.1,29.88,NW,315,0.0,1.0,87,0.00,,,0.00,vanprod-2.3,2013-06-24 12:55:00,
2013-06-24 08:00:00,66.8,62.8,29.88,NW,315,0.0,0.0,87,0.00,,,0.00,vanprod-2.3,2013-06-24 13:00:00,
2013-06-24 08:05:00,67.1,63.1,29.89,NW,315,0.0,0.0,87,0.00,,,0.00,vanprod-2.3,2013-06-24 13:05:00,
2013-06-24 08:10:00,67.6,63.6,29.89,NW,315,0.0,0.0,87,0.00,,,0.00,vanprod-2.3,2013-06-24 13:10:00,
2013-06-24 08:15:00,68.1,63.8,29.89,NW,315,0.0,0.0,86,0.00,,,0.00,vanprod-2.3,2013-06-24 13:15:00,
2013-06-24 08:20:00,68.6,62.9,29.89,NW,315,0.0,0.0,82,0.00,,,0.00,vanprod-2.3,2013-06-24 13:20:00,
2013-06-24 08:25:00,69.1,63.0,29.89,NW,315,0.0,0.0,81,0.00,,,0.00,vanprod-2.3,2013-06-24 13:25:00,
2013-06-24 08:30:00,69.6,63.9,29.89,NW,315,0.0,0.0,82,0.00,,,0.00,vanprod-2.3,2013-06-24 13:30:00,
2013-06-24 08:35:00,70.1,63.7,29.89,NW,315,0.0,0.0,80,0.00,,,0.00,vanprod-2.3,2013-06-24 13:35:00,
2013-06-24 08:41:00,70.4,63.2,29.89,NW,315,0.0,0.0,78,0.00,,,0.00,vanprod-2.3,2013-06-24 13:41:00,
2013-06-24 08:46:00,70.8,63.6,29.89,NW,315,0.0,0.0,78,0.00,,,0.00,vanprod-2.3,2013-06-24 13:46:00,
2013-06-24 08:51:00,71.0,63.4,29.89,NW,315,0.0,0.0,77,0.00,,,0.00,vanprod-2.3,2013-06-24 13:51:00,
2013-06-24 08:56:00,71.1,63.9,29.88,NW,315,0.0,0.0,78,0.00,,,0.00,vanprod-2.3,2013-06-24 13:56:00,
2013-06-24 09:01:00,71.5,64.3,29.88,NW,315,0.0,0.0,78,0.00,,,0.00,vanprod-2.3,2013-06-24 14:01:00,
2013-06-24 09:06:00,71.8,64.6,29.88,NW,315,0.0,0.0,78,0.00,,,0.00,vanprod-2.3,2013-06-24 14:06:00,
2013-06-24 09:11:00,72.0,64.8,29.89,NW,315,0.0,1.0,78,0.00,,,0.00,vanprod-2.3,2013-06-24 14:11:00,
2013-06-24 09:16:00,72.2,64.6,29.88,NW,315,0.0,0.0,77,0.00,,,0.00,vanprod-2.3,2013-06-24 14:16:00,
2013-06-24 09:21:00,72.3,64.3,29.89,NW,315,0.0,0.0,76,0.00,,,0.00,vanprod-2.3,2013-06-24 14:21:00,
2013-06-24 09:26:00,72.3,64.7,29.89,NW,315,0.0,0.0,77,0.00,,,0.00,vanprod-2.3,2013-06-24 14:26:00,
2013-06-24 09:31:00,72.3,64.3,29.89,NW,315,0.0,1.0,76,0.00,,,0.00,vanprod-2.3,2013-06-24 14:31:00,
2013-06-24 09:36:00,72.5,64.9,29.89,NW,315,0.0,0.0,77,0.00,,,0.00,vanprod-2.3,2013-06-24 14:36:00,
2013-06-24 09:41:00,72.3,64.7,29.89,NW,315,0.0,0.0,77,0.00,,,0.00,vanprod-2.3,2013-06-24 14:41:00,
2013-06-24 09:46:00,72.3,64.7,29.89,NW,315,0.0,0.0,77,0.00,,,0.00,vanprod-2.3,2013-06-24 14:46:00,
2013-06-24 09:51:00,72.3,64.3,29.89,NW,315,0.0,2.0,76,0.00,,,0.00,vanprod-2.3,2013-06-24 14:51:00,
2013-06-24 09:56:00,72.2,64.6,29.90,NW,315,0.0,0.0,77,0.00,,,0.00,vanprod-2.3,2013-06-24 14:56:00,
2013-06-24 10:01:00,72.2,65.0,29.90,NW,315,0.0,1.0,78,0.00,,,0.00,vanprod-2.3,2013-06-24 15:01:00,
2013-06-24 10:06:00,72.2,65.0,29.90,NW,315,0.0,1.0,78,0.00,,,0.00,vanprod-2.3,2013-06-24 15:06:00,
2013-06-24 10:12:00,72.0,64.8,29.90,NW,315,0.0,1.0,78,0.00,,,0.00,vanprod-2.3,2013-06-24 15:12:00,
2013-06-24 10:17:00,72.2,65.3,29.89,NW,315,0.0,0.0,79,0.00,,,0.00,vanprod-2.3,2013-06-24 15:17:00,
2013-06-24 10:22:00,72.2,65.3,29.89,NW,315,0.0,1.0,79,0.00,,,0.00,vanprod-2.3,2013-06-24 15:22:00,
2013-06-24 10:27:00,72.2,65.7,29.90,NW,315,0.0,1.0,80,0.00,,,0.00,vanprod-2.3,2013-06-24 15:27:00,
2013-06-24 10:32:00,72.3,65.8,29.89,NW,315,0.0,0.0,80,0.00,,,0.00,vanprod-2.3,2013-06-24 15:32:00,
2013-06-24 10:37:00,72.5,66.0,29.89,NW,315,0.0,0.0,80,0.00,,,0.00,vanprod-2.3,2013-06-24 15:37:00,
2013-06-24 10:42:00,72.7,66.2,29.89,NW,315,0.0,1.0,80,0.00,,,0.00,vanprod-2.3,2013-06-24 15:42:00,
2013-06-24 10:47:00,72.8,65.9,29.89,NW,315,0.0,0.0,79,0.00,,,0.00,vanprod-2.3,2013-06-24 15:47:00,
2013-06-24 10:52:00,73.0,66.1,29.88,NW,315,0.0,0.0,79,0.00,,,0.00,vanprod-2.3,2013-06-24 15:52:00,
2013-06-24 10:57:00,73.2,66.3,29.88,NW,315,0.0,0.0,79,0.00,,,0.00,vanprod-2.3,2013-06-24 15:57:00,
2013-06-24 11:02:00,73.0,65.7,29.87,NW,315,1.0,1.0,78,0.00,,,0.00,vanprod-2.3,2013-06-24 16:02:00,
2013-06-24 11:07:00,73.0,65.7,29.87,NW,315,0.0,0.0,78,0.00,,,0.00,vanprod-2.3,2013-06-24 16:07:00,
2013-06-24 11:13:00,73.0,66.1,29.86,NW,315,0.0,4.0,79,0.00,,,0.00,vanprod-2.3,2013-06-24 16:13:00,
2013-06-24 11:18:00,73.0,66.1,29.85,NW,315,0.0,0.0,79,0.00,,,0.00,vanprod-2.3,2013-06-24 16:18:00,
2013-06-24 11:23:00,73.0,66.1,29.84,NW,315,0.0,0.0,79,0.00,,,0.00,vanprod-2.3,2013-06-24 16:23:00,
2013-06-24 11:28:00,73.0,66.1,29.83,NW,315,0.0,1.0,79,0.00,,,0.00,vanprod-2.3,2013-06-24 16:28:00,
2013-06-24 11:33:00,73.0,66.1,29.82,NW,315,0.0,0.0,79,0.00,,,0.00,vanprod-2.3,2013-06-24 16:33:00,
2013-06-24 11:38:00,73.0,66.1,29.82,NW,315,0.0,0.0,79,0.00,,,0.00,vanprod-2.3,2013-06-24 16:38:00,
2013-06-24 11:43:00,73.2,65.9,29.82,NW,315,0.0,0.0,78,0.00,,,0.00,vanprod-2.3,2013-06-24 16:43:00,
2013-06-24 11:48:00,73.4,65.8,29.82,NW,315,0.0,0.0,77,0.00,,,0.00,vanprod-2.3,2013-06-24 16:48:00,
2013-06-24 11:53:00,73.5,66.2,29.82,NW,315,0.0,0.0,78,0.00,,,0.00,vanprod-2.3,2013-06-24 16:53:00,
2013-06-24 11:58:00,73.9,66.6,29.82,NW,315,0.0,0.0,78,0.00,,,0.00,vanprod-2.3,2013-06-24 16:58:00,
2013-06-24 12:03:00,74.2,66.2,29.83,NW,315,0.0,0.0,76,0.00,,,0.00,vanprod-2.3,2013-06-24 17:03:00,
2013-06-24 12:08:00,74.8,67.1,29.84,NW,315,0.0,0.0,77,0.00,,,0.00,vanprod-2.3,2013-06-24 17:08:00,
2013-06-24 12:14:00,74.9,67.2,29.84,NW,315,0.0,1.0,77,0.00,,,0.00,vanprod-2.3,2013-06-24 17:14:00,
2013-06-24 12:19:00,75.1,66.6,29.84,NW,315,0.0,0.0,75,0.00,,,0.00,vanprod-2.3,2013-06-24 17:19:00,
2013-06-24 12:24:00,75.1,66.6,29.84,NW,315,0.0,0.0,75,0.00,,,0.00,vanprod-2.3,2013-06-24 17:24:00,
2013-06-24 12:29:00,75.1,67.4,29.84,NW,315,0.0,0.0,77,0.00,,,0.00,vanprod-2.3,2013-06-24 17:29:00,
2013-06-24 12:35:00,75.1,67.0,29.84,NW,315,0.0,1.0,76,0.00,,,0.00,vanprod-2.3,2013-06-24 17:35:00,
2013-06-24 12:40:00,75.1,67.0,29.84,NW,315,0.0,0.0,76,0.00,,,0.00,vanprod-2.3,2013-06-24 17:40:00,
2013-06-24 12:45:00,75.1,67.4,29.83,NW,315,0.0,0.0,77,0.00,,,0.00,vanprod-2.3,2013-06-24 17:45:00,
2013-06-24 12:50:00,74.9,67.2,29.82,NW,315,0.0,0.0,77,0.00,,,0.00,vanprod-2.3,2013-06-24 17:50:00,
2013-06-24 12:55:00,75.1,67.8,29.82,NW,315,0.0,0.0,78,0.00,,,0.00,vanprod-2.3,2013-06-24 17:55:00,
2013-06-24 13:00:00,75.1,67.8,29.82,NW,315,0.0,0.0,78,0.00,,,0.00,vanprod-2.3,2013-06-24 18:00:00,
2013-06-24 13:05:00,75.3,67.6,29.82,NW,315,0.0,0.0,77,0.00,,,0.00,vanprod-2.3,2013-06-24 18:05:00,
2013-06-24 13:10:00,75.3,67.6,29.82,NW,315,0.0,0.0,77,0.00,,,0.00,vanprod-2.3,2013-06-24 18:10:00,
2013-06-24 13:15:00,75.3,68.0,29.82,NW,315,0.0,0.0,78,0.00,,,0.00,vanprod-2.3,2013-06-24 18:15:00,
2013-06-24 13:20:00,75.3,68.0,29.82,NW,315,1.0,1.0,78,0.00,,,0.00,vanprod-2.3,2013-06-24 18:20:00,
2013-06-24 13:25:00,75.3,67.6,29.83,NW,315,1.0,1.0,77,0.00,,,0.00,vanprod-2.3,2013-06-24 18:25:00,
2013-06-24 13:30:00,75.3,68.0,29.83,NW,315,0.0,0.0,78,0.00,,,0.00,vanprod-2.3,2013-06-24 18:30:00,
2013-06-24 13:35:00,75.3,67.6,29.84,NW,315,0.0,0.0,77,0.00,,,0.00,vanprod-2.3,2013-06-24 18:35:00,
2013-06-24 13:40:00,75.1,67.4,29.84,NW,315,0.0,0.0,77,0.00,,,0.00,vanprod-2.3,2013-06-24 18:40:00,
2013-06-24 13:45:00,75.1,67.8,29.83,NW,306,0.0,0.0,78,0.00,,,0.00,vanprod-2.3,2013-06-24 18:45:00,
2013-06-24 13:50:00,75.1,67.8,29.82,NW,306,0.0,0.0,78,0.00,,,0.00,vanprod-2.3,2013-06-24 18:50:00,
2013-06-24 13:56:00,75.1,68.1,29.82,NW,306,0.0,0.0,79,0.00,,,0.00,vanprod-2.3,2013-06-24 18:56:00,
2013-06-24 14:01:00,75.3,68.3,29.82,NW,306,0.0,0.0,79,0.00,,,0.00,vanprod-2.3,2013-06-24 19:01:00,
2013-06-24 14:06:00,75.5,69.3,29.82,NW,306,0.0,0.0,81,0.00,,,0.00,vanprod-2.3,2013-06-24 19:06:00,
2013-06-24 14:11:00,75.6,69.4,29.82,NW,306,0.0,0.0,81,0.00,,,0.00,vanprod-2.3,2013-06-24 19:11:00,
2013-06-24 14:16:00,75.8,69.6,29.81,NW,306,0.0,0.0,81,0.00,,,0.00,vanprod-2.3,2013-06-24 19:16:00,
2013-06-24 14:21:00,76.0,69.8,29.81,NW,306,0.0,0.0,81,0.00,,,0.00,vanprod-2.3,2013-06-24 19:21:00,
2013-06-24 14:26:00,76.3,68.9,29.82,NW,306,1.0,0.0,78,0.00,,,0.00,vanprod-2.3,2013-06-24 19:26:00,
2013-06-24 14:31:00,76.9,69.5,29.82,NW,306,0.0,0.0,78,0.00,,,0.00,vanprod-2.3,2013-06-24 19:31:00,
2013-06-24 14:36:00,77.1,69.0,29.81,NW,306,0.0,0.0,76,0.00,,,0.00,vanprod-2.3,2013-06-24 19:36:00,
2013-06-24 14:41:00,77.1,69.0,29.81,NW,306,0.0,2.0,76,0.00,,,0.00,vanprod-2.3,2013-06-24 19:41:00,
2013-06-24 14:46:00,77.1,69.3,29.82,NW,306,0.0,0.0,77,0.00,,,0.00,vanprod-2.3,2013-06-24 19:46:00,
2013-06-24 14:51:00,76.9,69.1,29.83,NW,306,1.0,2.0,77,0.00,,,0.00,vanprod-2.3,2013-06-24 19:51:00,
2013-06-24 14:56:00,76.7,69.3,29.84,NW,306,0.0,1.0,78,0.00,,,0.00,vanprod-2.3,2013-06-24 19:56:00,
2013-06-24 15:01:00,76.2,69.2,29.85,NW,306,1.0,2.0,79,0.00,,,0.00,vanprod-2.3,2013-06-24 20:01:00,
2013-06-24 15:06:00,75.8,69.9,29.86,NW,304,1.0,5.0,82,0.03,,,0.03,vanprod-2.3,2013-06-24 20:06:00,
2013-06-24 15:11:00,74.2,70.1,29.86,WNW,299,0.0,0.0,87,0.17,,,0.17,vanprod-2.3,2013-06-24 20:11:00,
2013-06-24 15:16:00,73.2,69.8,29.85,WNW,299,0.0,0.0,89,0.22,,,0.22,vanprod-2.3,2013-06-24 20:16:00,
2013-06-24 15:22:00,72.5,69.7,29.84,WNW,299,0.0,0.0,91,0.24,,,0.24,vanprod-2.3,2013-06-24 20:22:00,
2013-06-24 15:27:00,72.2,69.8,29.85,WNW,299,0.0,0.0,92,0.25,,,0.25,vanprod-2.3,2013-06-24 20:27:00,
2013-06-24 15:32:00,72.0,69.9,29.84,WNW,299,0.0,0.0,93,0.25,,,0.25,vanprod-2.3,2013-06-24 20:32:00,
2013-06-24 15:37:00,71.8,69.7,29.84,WNW,299,0.0,0.0,93,0.25,,,0.25,vanprod-2.3,2013-06-24 20:37:00,
2013-06-24 15:42:00,71.8,70.0,29.84,WNW,299,0.0,0.0,94,0.26,,,0.26,vanprod-2.3,2013-06-24 20:42:00,
2013-06-24 15:47:00,72.0,70.5,29.84,WNW,299,0.0,0.0,95,0.27,,,0.27,vanprod-2.3,2013-06-24 20:47:00,
2013-06-24 15:52:00,72.0,70.5,29.84,WNW,299,0.0,0.0,95,0.28,,,0.28,vanprod-2.3,2013-06-24 20:52:00,
2013-06-24 15:57:00,72.2,70.7,29.85,WNW,299,0.0,0.0,95,0.29,,,0.29,vanprod-2.3,2013-06-24 20:57:00,
2013-06-24 16:02:00,72.5,71.3,29.85,WNW,299,0.0,0.0,96,0.29,,,0.29,vanprod-2.3,2013-06-24 21:02:00,
2013-06-24 16:07:00,72.3,70.8,29.84,WNW,299,0.0,0.0,95,0.24,,,0.29,vanprod-2.3,2013-06-24 21:07:00,
2013-06-24 16:12:00,71.8,70.0,29.84,WNW,299,0.0,0.0,94,0.12,,,0.29,vanprod-2.3,2013-06-24 21:12:00,
2013-06-24 16:17:00,71.0,68.2,29.84,WNW,299,0.0,1.0,91,0.07,,,0.29,vanprod-2.3,2013-06-24 21:17:00,
2013-06-24 16:22:00,70.1,66.7,29.84,WNW,299,0.0,0.0,89,0.06,,,0.30,vanprod-2.3,2013-06-24 21:22:00,
2013-06-24 16:27:00,69.6,66.2,29.84,WNW,299,0.0,0.0,89,0.05,,,0.30,vanprod-2.3,2013-06-24 21:27:00,
2013-06-24 16:32:00,69.4,65.7,29.84,WNW,299,0.0,0.0,88,0.05,,,0.30,vanprod-2.3,2013-06-24 21:32:00,
2013-06-24 16:37:00,69.3,65.6,29.84,WNW,299,0.0,0.0,88,0.05,,,0.30,vanprod-2.3,2013-06-24 21:37:00,
2013-06-24 16:43:00,69.3,65.9,29.84,WNW,299,0.0,0.0,89,0.04,,,0.30,vanprod-2.3,2013-06-24 21:43:00,
2013-06-24 16:48:00,69.6,66.9,29.83,WNW,299,0.0,0.0,91,0.03,,,0.30,vanprod-2.3,2013-06-24 21:48:00,
2013-06-24 16:53:00,69.9,67.5,29.83,WNW,299,0.0,0.0,92,0.02,,,0.30,vanprod-2.3,2013-06-24 21:53:00,
2013-06-24 16:58:00,70.6,68.5,29.82,WNW,299,0.0,0.0,93,0.01,,,0.30,vanprod-2.3,2013-06-24 21:58:00,
2013-06-24 17:03:00,71.0,68.6,29.82,WNW,299,0.0,0.0,92,0.01,,,0.30,vanprod-2.3,2013-06-24 22:03:00,
2013-06-24 17:08:00,71.3,68.5,29.81,WNW,299,0.0,0.0,91,0.01,,,0.30,vanprod-2.3,2013-06-24 22:08:00,
2013-06-24 17:13:00,71.6,68.8,29.81,WNW,299,0.0,0.0,91,0.01,,,0.30,vanprod-2.3,2013-06-24 22:13:00,
2013-06-24 17:18:00,71.8,69.0,29.81,WNW,299,0.0,0.0,91,0.00,,,0.30,vanprod-2.3,2013-06-24 22:18:00,
2013-06-24 17:23:00,71.8,69.0,29.81,WNW,299,0.0,0.0,91,0.00,,,0.30,vanprod-2.3,2013-06-24 22:23:00,
2013-06-24 17:28:00,71.8,68.7,29.81,WNW,299,0.0,0.0,90,0.00,,,0.30,vanprod-2.3,2013-06-24 22:28:00,
2013-06-24 17:33:00,72.0,69.2,29.80,WNW,299,0.0,1.0,91,0.00,,,0.30,vanprod-2.3,2013-06-24 22:33:00,
2013-06-24 17:38:00,72.3,69.5,29.79,WNW,288,0.0,2.0,91,0.00,,,0.30,vanprod-2.3,2013-06-24 22:38:00,
2013-06-24 17:43:00,72.3,69.5,29.79,WNW,285,1.0,2.0,91,0.00,,,0.30,vanprod-2.3,2013-06-24 22:43:00,
2013-06-24 17:48:00,72.5,69.7,29.79,SW,225,2.0,6.0,91,0.00,,,0.30,vanprod-2.3,2013-06-24 22:48:00,
2013-06-24 17:53:00,72.8,69.7,29.78,SW,222,0.0,0.0,90,0.00,,,0.30,vanprod-2.3,2013-06-24 22:53:00,
2013-06-24 17:59:00,73.0,69.9,29.78,SW,222,2.0,2.0,90,0.00,,,0.30,vanprod-2.3,2013-06-24 22:59:00,
2013-06-24 18:04:00,73.2,69.8,29.78,SW,222,2.0,6.0,89,0.00,,,0.30,vanprod-2.3,2013-06-24 23:04:00,
2013-06-24 18:09:00,73.4,70.0,29.78,SW,222,2.0,6.0,89,0.00,,,0.30,vanprod-2.3,2013-06-24 23:09:00,
2013-06-24 18:14:00,73.4,69.6,29.77,SW,222,1.0,1.0,88,0.00,,,0.30,vanprod-2.3,2013-06-24 23:14:00,
2013-06-24 18:19:00,73.7,69.6,29.78,SW,222,1.0,5.0,87,0.00,,,0.30,vanprod-2.3,2013-06-24 23:19:00,
2013-06-24 18:24:00,73.9,69.8,29.77,SSW,199,2.0,0.0,87,0.00,,,0.30,vanprod-2.3,2013-06-24 23:24:00,
2013-06-24 18:29:00,73.9,69.8,29.77,SSW,198,2.0,2.0,87,0.00,,,0.30,vanprod-2.3,2013-06-24 23:29:00,
2013-06-24 18:34:00,74.1,70.0,29.78,SSW,198,3.0,3.0,87,0.00,,,0.30,vanprod-2.3,2013-06-24 23:34:00,
2013-06-24 18:39:00,74.2,70.1,29.78,SSW,198,2.0,2.0,87,0.00,,,0.30,vanprod-2.3,2013-06-24 23:39:00,
2013-06-24 18:44:00,74.4,70.3,29.78,South,182,3.0,5.0,87,0.00,,,0.30,vanprod-2.3,2013-06-24 23:44:00,
2013-06-24 18:49:00,74.4,70.3,29.78,South,182,3.0,4.0,87,0.00,,,0.30,vanprod-2.3,2013-06-24 23:49:00,
2013-06-24 18:54:00,74.4,69.6,29.78,South,176,2.0,6.0,85,0.00,,,0.30,vanprod-2.3,2013-06-24 23:54:00,
2013-06-24 18:59:00,74.6,69.8,29.78,South,176,2.0,4.0,85,0.00,,,0.30,vanprod-2.3,2013-06-24 23:59:00,
2013-06-24 19:05:00,74.6,69.8,29.79,South,175,2.0,2.0,85,0.00,,,0.30,vanprod-2.3,2013-06-25 00:05:00,
2013-06-24 19:10:00,74.8,69.6,29.79,South,175,0.0,2.0,84,0.00,,,0.30,vanprod-2.3,2013-06-25 00:10:00,
2013-06-24 19:15:00,74.8,69.6,29.79,South,175,2.0,5.0,84,0.00,,,0.30,vanprod-2.3,2013-06-25 00:15:00,
2013-06-24 19:20:00,74.8,69.3,29.78,South,175,0.0,2.0,83,0.00,,,0.30,vanprod-2.3,2013-06-25 00:20:00,
2013-06-24 19:25:00,74.6,68.4,29.78,South,175,1.0,1.0,81,0.00,,,0.30,vanprod-2.3,2013-06-25 00:25:00,
2013-06-24 19:30:00,74.6,67.7,29.78,South,175,2.0,5.0,79,0.00,,,0.30,vanprod-2.3,2013-06-25 00:30:00,
2013-06-24 19:35:00,74.4,67.5,29.78,South,175,3.0,3.0,79,0.00,,,0.30,vanprod-2.3,2013-06-25 00:35:00,
2013-06-24 19:40:00,74.4,67.5,29.78,South,175,3.0,6.0,79,0.00,,,0.30,vanprod-2.3,2013-06-25 00:40:00,
2013-06-24 19:45:00,74.6,67.7,29.78,South,175,2.0,3.0,79,0.00,,,0.30,vanprod-2.3,2013-06-25 00:45:00,
2013-06-24 19:50:00,74.6,67.7,29.78,South,174,2.0,0.0,79,0.00,,,0.30,vanprod-2.3,2013-06-25 00:50:00,
2013-06-24 19:55:00,74.6,67.7,29.78,South,174,2.0,2.0,79,0.00,,,0.30,vanprod-2.3,2013-06-25 00:55:00,
2013-06-24 20:00:00,74.8,67.5,29.78,South,174,0.0,0.0,78,0.00,,,0.30,vanprod-2.3,2013-06-25 01:00:00,
2013-06-24 20:05:00,74.8,67.9,29.78,South,174,0.0,0.0,79,0.00,,,0.30,vanprod-2.3,2013-06-25 01:05:00,
2013-06-24 20:10:00,74.9,68.0,29.79,South,174,0.0,1.0,79,0.00,,,0.30,vanprod-2.3,2013-06-25 01:10:00,
2013-06-24 20:15:00,74.9,68.0,29.79,South,174,0.0,0.0,79,0.00,,,0.30,vanprod-2.3,2013-06-25 01:15:00,
2013-06-24 20:20:00,74.9,68.0,29.79,South,174,0.0,0.0,79,0.00,,,0.30,vanprod-2.3,2013-06-25 01:20:00,
2013-06-24 20:25:00,74.9,68.0,29.79,South,174,0.0,1.0,79,0.00,,,0.30,vanprod-2.3,2013-06-25 01:25:00,
2013-06-24 20:30:00,74.8,68.2,29.79,South,174,0.0,1.0,80,0.00,,,0.30,vanprod-2.3,2013-06-25 01:30:00,
2013-06-24 20:35:00,74.4,68.2,29.80,South,174,0.0,1.0,81,0.00,,,0.30,vanprod-2.3,2013-06-25 01:35:00,
2013-06-24 20:40:00,74.1,68.3,29.79,South,174,0.0,0.0,82,0.00,,,0.30,vanprod-2.3,2013-06-25 01:40:00,
2013-06-24 20:45:00,73.7,68.2,29.79,South,174,0.0,0.0,83,0.00,,,0.30,vanprod-2.3,2013-06-25 01:45:00,
2013-06-24 20:50:00,73.5,68.0,29.79,South,174,0.0,0.0,83,0.00,,,0.30,vanprod-2.3,2013-06-25 01:50:00,
2013-06-24 20:55:00,73.2,67.7,29.79,South,174,0.0,0.0,83,0.00,,,0.30,vanprod-2.3,2013-06-25 01:55:00,
2013-06-24 21:00:00,73.0,67.9,29.79,South,174,0.0,0.0,84,0.00,,,0.30,vanprod-2.3,2013-06-25 02:00:00,
2013-06-24 21:05:00,72.8,67.7,29.79,South,174,0.0,0.0,84,0.00,,,0.30,vanprod-2.3,2013-06-25 02:05:00,
2013-06-24 21:11:00,72.5,67.7,29.79,South,174,0.0,0.0,85,0.00,,,0.30,vanprod-2.3,2013-06-25 02:11:00,
2013-06-24 21:16:00,72.2,67.4,29.79,South,174,0.0,0.0,85,0.00,,,0.30,vanprod-2.3,2013-06-25 02:16:00,
2013-06-24 21:20:00,72.0,67.6,29.80,South,174,0.0,0.0,86,0.00,,,0.30,vanprod-2.3,2013-06-25 02:20:00,
2013-06-24 21:25:00,72.0,67.9,29.80,South,174,0.0,0.0,87,0.00,,,0.30,vanprod-2.3,2013-06-25 02:25:00,
2013-06-24 21:31:00,71.8,67.7,29.80,South,174,0.0,0.0,87,0.00,,,0.30,vanprod-2.3,2013-06-25 02:31:00,
2013-06-24 21:36:00,71.5,67.4,29.80,South,174,0.0,0.0,87,0.00,,,0.30,vanprod-2.3,2013-06-25 02:36:00,
2013-06-24 21:41:00,71.0,67.6,29.80,South,174,0.0,0.0,89,0.00,,,0.30,vanprod-2.3,2013-06-25 02:41:00,
2013-06-24 21:46:00,70.8,67.4,29.80,South,174,0.0,0.0,89,0.00,,,0.30,vanprod-2.3,2013-06-25 02:46:00,
2013-06-24 21:51:00,70.6,67.2,29.80,South,174,0.0,0.0,89,0.00,,,0.30,vanprod-2.3,2013-06-25 02:51:00,
2013-06-24 21:57:00,70.6,67.2,29.80,South,174,0.0,0.0,89,0.00,,,0.30,vanprod-2.3,2013-06-25 02:57:00,
2013-06-24 22:02:00,70.4,67.0,29.80,South,174,0.0,0.0,89,0.00,,,0.30,vanprod-2.3,2013-06-25 03:02:00,
2013-06-24 22:07:00,70.3,66.9,29.80,South,174,0.0,0.0,89,0.00,,,0.30,vanprod-2.3,2013-06-25 03:07:00,
2013-06-24 22:12:00,70.3,66.9,29.80,South,174,0.0,0.0,89,0.00,,,0.30,vanprod-2.3,2013-06-25 03:12:00,
2013-06-24 22:17:00,70.1,66.7,29.80,South,174,0.0,0.0,89,0.00,,,0.30,vanprod-2.3,2013-06-25 03:17:00,
2013-06-24 22:22:00,70.1,67.0,29.81,South,174,0.0,0.0,90,0.00,,,0.30,vanprod-2.3,2013-06-25 03:22:00,
2013-06-24 22:24:00,69.9,66.8,29.81,South,174,0.0,0.0,90,0.00,,,0.30,vanprod-2.3,2013-06-25 03:24:00,
2013-06-24 22:25:00,69.9,66.8,29.81,South,174,0.0,0.0,90,0.00,,,0.30,vanprod-2.3,2013-06-25 03:25:00,
2013-06-24 22:26:00,69.9,66.8,29.81,South,174,0.0,0.0,90,0.00,,,0.30,vanprod-2.3,2013-06-25 03:26:00,
2013-06-24 22:27:00,69.9,66.8,29.81,South,174,0.0,0.0,90,0.00,,,0.30,vanprod-2.3,2013-06-25 03:27:00,
2013-06-24 22:28:00,69.9,66.8,29.81,South,174,0.0,0.0,90,0.00,,,0.30,vanprod-2.3,2013-06-25 03:28:00,
2013-06-24 22:29:00,69.8,66.7,29.81,South,174,0.0,0.0,90,0.00,,,0.30,vanprod-2.3,2013-06-25 03:29:00,
2013-06-24 22:30:00,69.8,66.7,29.81,South,174,0.0,0.0,90,0.00,,,0.30,vanprod-2.3,2013-06-25 03:30:00,
2013-06-24 22:31:00,69.8,66.7,29.81,South,174,0.0,0.0,90,0.00,,,0.30,vanprod-2.3,2013-06-25 03:31:00,
2013-06-24 22:32:00,69.8,66.7,29.81,South,174,0.0,0.0,90,0.00,,,0.30,vanprod-2.3,2013-06-25 03:32:00,
2013-06-24 22:33:00,69.9,66.8,29.81,South,174,0.0,0.0,90,0.00,,,0.30,vanprod-2.3,2013-06-25 03:33:00,
2013-06-24 22:34:00,69.8,66.7,29.81,South,174,0.0,0.0,90,0.00,,,0.30,vanprod-2.3,2013-06-25 03:34:00,
2013-06-24 22:35:00,69.8,66.7,29.81,South,174,0.0,0.0,90,0.00,,,0.30,vanprod-2.3,2013-06-25 03:35:00,
2013-06-24 22:36:00,69.6,66.5,29.81,South,174,0.0,0.0,90,0.00,,,0.30,vanprod-2.3,2013-06-25 03:36:00,
2013-06-24 22:37:00,69.6,66.5,29.81,South,174,0.0,0.0,90,0.00,,,0.30,vanprod-2.3,2013-06-25 03:37:00,
2013-06-24 22:38:00,69.6,66.5,29.81,South,174,0.0,0.0,90,0.00,,,0.30,vanprod-2.3,2013-06-25 03:38:00,
2013-06-24 22:39:00,69.6,66.5,29.81,South,174,0.0,0.0,90,0.00,,,0.30,vanprod-2.3,2013-06-25 03:39:00,
2013-06-24 22:40:00,69.6,66.5,29.81,South,174,0.0,0.0,90,0.00,,,0.30,vanprod-2.3,2013-06-25 03:40:00,
2013-06-24 22:41:00,69.6,66.5,29.81,South,174,0.0,0.0,90,0.00,,,0.30,vanprod-2.3,2013-06-25 03:41:00,
2013-06-24 22:42:00,69.6,66.5,29.80,South,174,0.0,0.0,90,0.00,,,0.30,vanprod-2.3,2013-06-25 03:42:00,
2013-06-24 22:43:00,69.8,66.7,29.81,South,174,0.0,0.0,90,0.00,,,0.30,vanprod-2.3,2013-06-25 03:43:00,
2013-06-24 22:44:00,69.4,66.3,29.80,South,174,0.0,0.0,90,0.00,,,0.30,vanprod-2.3,2013-06-25 03:44:00,
2013-06-24 22:45:00,69.4,66.3,29.81,South,174,0.0,0.0,90,0.00,,,0.30,vanprod-2.3,2013-06-25 03:45:00,
2013-06-24 22:46:00,69.4,66.3,29.81,South,174,0.0,0.0,90,0.00,,,0.30,vanprod-2.3,2013-06-25 03:46:00,
2013-06-24 22:47:00,69.4,66.3,29.81,South,174,0.0,0.0,90,0.00,,,0.30,vanprod-2.3,2013-06-25 03:47:00,
2013-06-24 22:48:00,69.4,66.3,29.81,South,174,0.0,0.0,90,0.00,,,0.30,vanprod-2.3,2013-06-25 03:48:00,
2013-06-24 22:49:00,69.4,66.3,29.81,South,174,0.0,0.0,90,0.00,,,0.30,vanprod-2.3,2013-06-25 03:49:00,
2013-06-24 22:50:00,69.4,66.3,29.81,South,174,0.0,0.0,90,0.00,,,0.30,vanprod-2.3,2013-06-25 03:50:00,
2013-06-24 22:51:00,69.3,66.2,29.81,South,174,0.0,0.0,90,0.00,,,0.30,vanprod-2.3,2013-06-25 03:51:00,
2013-06-24 22:52:00,69.3,66.2,29.81,South,174,0.0,0.0,90,0.00,,,0.30,vanprod-2.3,2013-06-25 03:52:00,
2013-06-24 22:53:00,69.3,66.2,29.81,South,174,0.0,0.0,90,0.00,,,0.30,vanprod-2.3,2013-06-25 03:53:00,
2013-06-24 23:01:00,69.6,66.5,29.80,South,174,0.0,0.0,90,0.00,,,0.30,vanprod-2.3,2013-06-25 04:01:00,
2013-06-24 23:06:00,68.9,65.9,29.81,South,174,0.0,0.0,90,0.00,,,0.30,vanprod-2.3,2013-06-25 04:06:00,
2013-06-24 23:11:00,68.9,65.9,29.81,South,174,0.0,0.0,90,0.00,,,0.30,vanprod-2.3,2013-06-25 04:11:00,
2013-06-24 23:16:00,68.8,65.8,29.81,South,174,0.0,0.0,90,0.00,,,0.30,vanprod-2.3,2013-06-25 04:16:00,
2013-06-24 23:21:00,68.6,65.6,29.81,South,174,0.0,0.0,90,0.00,,,0.30,vanprod-2.3,2013-06-25 04:21:00,
2013-06-24 23:26:00,68.6,65.6,29.80,South,174,0.0,0.0,90,0.00,,,0.30,vanprod-2.3,2013-06-25 04:26:00,
2013-06-24 23:31:00,68.4,65.4,29.80,South,174,0.0,0.0,90,0.00,,,0.30,vanprod-2.3,2013-06-25 04:31:00,
2013-06-24 23:36:00,68.4,65.4,29.80,South,174,0.0,0.0,90,0.00,,,0.30,vanprod-2.3,2013-06-25 04:36:00,
2013-06-24 23:41:00,68.3,65.3,29.80,South,174,0.0,0.0,90,0.00,,,0.30,vanprod-2.3,2013-06-25 04:41:00,
2013-06-24 23:46:00,68.1,65.1,29.80,South,174,0.0,0.0,90,0.00,,,0.30,vanprod-2.3,2013-06-25 04:46:00,
2013-06-24 23:51:00,68.1,65.1,29.80,South,174,0.0,0.0,90,0.00,,,0.30,vanprod-2.3,2013-06-25 04:51:00,
2013-06-24 23:56:00,67.9,64.9,29.80,South,174,0.0,0.0,90,0.00,,,0.30,vanprod-2.3,2013-06-25 04:56:00,